createdAt,value
2023-10-24T00:02:17.684Z,23.60
2023-10-24T00:04:44.998Z,23.30
2023-10-24T00:07:12.130Z,23.50
2023-10-24T00:09:39.100Z,23.40
2023-10-24T00:12:06.810Z,23.60
2023-10-24T00:14:33.922Z,23.60
2023-10-24T00:17:03.691Z,23.60
2023-10-24T00:19:31.819Z,23.50
2023-10-24T00:21:58.969Z,23.50
2023-10-24T00:24:27.255Z,23.50
2023-10-24T00:26:55.774Z,23.50
2023-10-24T00:29:23.259Z,23.60
2023-10-24T00:31:50.320Z,23.50
2023-10-24T00:34:18.182Z,23.60
2023-10-24T00:36:45.235Z,23.60
2023-10-24T00:39:12.265Z,23.70
2023-10-24T00:41:40.195Z,23.80
2023-10-24T00:44:08.592Z,23.80
2023-10-24T00:46:38.988Z,23.60
2023-10-24T00:49:06.376Z,23.40
2023-10-24T00:51:33.836Z,23.50
2023-10-24T00:54:02.981Z,23.60
2023-10-24T00:56:47.974Z,23.60
2023-10-24T00:59:16.336Z,23.60
2023-10-24T01:01:43.789Z,23.60
2023-10-24T01:04:11.425Z,23.70
2023-10-24T01:06:38.960Z,23.80
2023-10-24T01:09:07.292Z,23.70
2023-10-24T01:11:35.285Z,23.60
2023-10-24T01:14:03.476Z,23.40
2023-10-24T01:16:34.697Z,23.20
2023-10-24T01:19:01.956Z,23.20
2023-10-24T01:21:28.977Z,23.10
2023-10-24T01:23:58.755Z,23.10
2023-10-24T01:26:27.126Z,23.00
2023-10-24T01:28:54.846Z,23.00
2023-10-24T01:31:22.014Z,23.30
2023-10-24T01:33:49.007Z,23.30
2023-10-24T01:36:15.984Z,23.40
2023-10-24T01:38:43.103Z,23.30
2023-10-24T01:41:10.434Z,23.40
2023-10-24T01:43:37.383Z,23.10
2023-10-24T01:46:04.520Z,23.00
2023-10-24T01:48:31.685Z,23.20
2023-10-24T01:51:01.501Z,23.20
2023-10-24T01:53:28.609Z,23.30
2023-10-24T01:55:55.873Z,23.30
2023-10-24T01:58:23.040Z,23.40
2023-10-24T02:00:50.311Z,23.40
2023-10-24T02:03:17.345Z,23.40
2023-10-24T02:05:44.401Z,23.60
2023-10-24T02:08:11.346Z,23.50
2023-10-24T02:10:38.415Z,23.40
2023-10-24T02:13:06.743Z,23.40
2023-10-24T02:15:33.710Z,23.40
2023-10-24T02:18:00.753Z,23.50
2023-10-24T02:20:27.743Z,23.50
2023-10-24T02:22:54.614Z,23.50
2023-10-24T02:25:21.567Z,23.50
2023-10-24T02:27:48.687Z,23.60
2023-10-24T02:30:15.660Z,23.60
2023-10-24T02:32:42.774Z,23.70
2023-10-24T02:35:10.242Z,23.60
2023-10-24T02:37:38.199Z,23.80
2023-10-24T02:40:06.826Z,23.80
2023-10-24T02:42:37.589Z,23.70
2023-10-24T02:45:05.064Z,23.50
2023-10-24T02:47:32.229Z,24.10
2023-10-24T02:49:59.559Z,23.60
2023-10-24T02:52:26.648Z,23.70
2023-10-24T02:54:53.817Z,23.70
2023-10-24T02:57:21.239Z,23.70
2023-10-24T02:59:48.173Z,23.80
2023-10-24T03:02:15.220Z,23.70
2023-10-24T03:04:42.371Z,23.80
2023-10-24T03:07:09.611Z,23.80
2023-10-24T03:09:37.374Z,23.70
2023-10-24T03:12:11.005Z,23.70
2023-10-24T03:14:38.316Z,23.80
2023-10-24T03:17:06.530Z,23.80
2023-10-24T03:19:34.126Z,23.90
2023-10-24T03:22:01.769Z,23.80
2023-10-24T03:24:30.059Z,23.70
2023-10-24T03:26:57.173Z,23.60
2023-10-24T03:29:24.137Z,23.60
2023-10-24T03:31:51.124Z,23.60
2023-10-24T03:34:18.418Z,24.20
2023-10-24T03:36:46.875Z,23.60
2023-10-24T03:39:13.945Z,23.70
2023-10-24T03:41:40.943Z,23.60
2023-10-24T03:44:08.943Z,24.20
2023-10-24T03:46:36.301Z,23.60
2023-10-24T03:49:03.513Z,23.60
2023-10-24T03:51:30.776Z,24.00
2023-10-24T03:53:58.001Z,24.50
2023-10-24T03:56:25.245Z,24.60
2023-10-24T03:58:52.354Z,24.80
2023-10-24T04:01:19.375Z,24.50
2023-10-24T04:03:46.767Z,24.30
2023-10-24T04:06:14.126Z,24.30
2023-10-24T04:08:41.410Z,24.40
2023-10-24T04:11:19.194Z,24.40
2023-10-24T04:13:47.452Z,24.20
2023-10-24T04:16:16.212Z,24.10
2023-10-24T04:18:44.355Z,24.00
2023-10-24T04:21:15.665Z,24.10
2023-10-24T04:23:43.013Z,24.30
2023-10-24T04:26:10.435Z,24.30
2023-10-24T04:28:42.445Z,24.20
2023-10-24T04:31:10.248Z,24.90
2023-10-24T04:33:37.377Z,25.50
2023-10-24T04:36:05.144Z,26.10
2023-10-24T04:38:32.132Z,26.40
2023-10-24T04:40:59.159Z,25.70
2023-10-24T04:43:26.160Z,25.20
2023-10-24T04:45:53.800Z,25.20
2023-10-24T04:48:20.914Z,25.10
2023-10-24T04:50:48.006Z,25.30
2023-10-24T04:53:15.694Z,25.10
2023-10-24T04:55:43.630Z,25.00
2023-10-24T04:58:12.142Z,24.70
2023-10-24T05:00:39.170Z,24.90
2023-10-24T05:03:06.364Z,25.70
2023-10-24T05:05:33.570Z,26.10
2023-10-24T05:08:00.730Z,26.40
2023-10-24T05:10:27.864Z,26.00
2023-10-24T05:12:55.047Z,26.30
2023-10-24T05:15:24.951Z,26.00
2023-10-24T05:17:52.588Z,26.50
2023-10-24T05:20:19.996Z,26.90
2023-10-24T05:22:47.043Z,27.20
2023-10-24T05:25:14.120Z,27.30
2023-10-24T05:27:41.422Z,27.50
2023-10-24T05:30:10.909Z,27.90
2023-10-24T05:32:39.390Z,27.00
2023-10-24T05:35:06.648Z,26.60
2023-10-24T05:37:36.396Z,26.70
2023-10-24T05:40:03.859Z,27.50
2023-10-24T05:42:30.883Z,27.60
2023-10-24T05:44:57.828Z,27.10
2023-10-24T05:47:25.227Z,27.50
2023-10-24T05:49:52.427Z,27.40
2023-10-24T05:52:19.590Z,27.00
2023-10-24T05:54:46.598Z,26.10
2023-10-24T05:57:13.662Z,25.60
2023-10-24T05:59:41.188Z,25.30
2023-10-24T06:02:08.207Z,25.00
2023-10-24T06:04:38.270Z,24.80
2023-10-24T06:07:06.918Z,24.80
2023-10-24T06:09:33.939Z,24.80
2023-10-24T06:12:01.111Z,25.20
2023-10-24T06:14:28.145Z,25.00
2023-10-24T06:16:55.327Z,25.30
2023-10-24T06:19:22.642Z,25.00
2023-10-24T06:21:49.657Z,25.10
2023-10-24T06:24:16.631Z,25.10
2023-10-24T06:26:43.648Z,25.20
2023-10-24T06:29:10.628Z,25.30
2023-10-24T06:31:37.665Z,25.10
2023-10-24T06:34:05.042Z,25.50
2023-10-24T06:36:31.908Z,24.70
2023-10-24T06:38:59.093Z,24.50
2023-10-24T06:41:26.465Z,24.50
2023-10-24T06:43:53.919Z,24.00
2023-10-24T06:46:25.577Z,23.90
2023-10-24T06:48:54.201Z,23.50
2023-10-24T06:51:21.359Z,23.10
2023-10-24T06:53:51.335Z,22.70
2023-10-24T06:56:21.624Z,23.20
2023-10-24T06:58:49.538Z,23.10
2023-10-24T07:01:16.628Z,23.70
2023-10-24T07:03:43.652Z,23.80
2023-10-24T07:06:13.754Z,24.50
2023-10-24T07:08:41.579Z,24.60
2023-10-24T07:11:08.535Z,24.50
2023-10-24T07:13:38.559Z,25.30
2023-10-24T07:16:15.533Z,25.20
2023-10-24T07:18:43.079Z,26.10
2023-10-24T07:21:10.132Z,25.80
2023-10-24T07:23:38.306Z,26.50
2023-10-24T07:26:05.772Z,26.20
2023-10-24T07:28:32.735Z,25.80
2023-10-24T07:30:59.680Z,26.20
2023-10-24T07:33:26.854Z,26.40
2023-10-24T07:35:53.907Z,25.90
2023-10-24T07:38:20.990Z,25.70
2023-10-24T07:40:49.589Z,25.20
2023-10-24T07:43:16.774Z,25.70
2023-10-24T07:45:43.660Z,25.90
2023-10-24T07:48:10.695Z,25.60
2023-10-24T07:50:37.738Z,25.80
2023-10-24T07:53:05.529Z,25.70
2023-10-24T07:55:32.628Z,25.80
2023-10-24T07:57:59.610Z,25.60
2023-10-24T08:00:26.665Z,25.90
2023-10-24T08:02:54.635Z,25.80
2023-10-24T08:05:23.376Z,26.00
2023-10-24T08:07:50.276Z,26.20
2023-10-24T08:10:17.454Z,25.90
2023-10-24T08:12:45.721Z,26.50
2023-10-24T08:15:13.021Z,27.50
2023-10-24T08:17:40.087Z,28.10
2023-10-24T08:20:08.014Z,28.50
2023-10-24T08:22:34.971Z,28.40
2023-10-24T08:25:01.916Z,28.50
2023-10-24T08:27:28.899Z,28.90
2023-10-24T08:29:55.864Z,29.10
2023-10-24T08:32:22.931Z,29.70
2023-10-24T08:34:50.349Z,29.50
2023-10-24T08:37:17.311Z,29.80
2023-10-24T08:39:44.970Z,28.70
2023-10-24T08:42:12.819Z,28.60
2023-10-24T08:44:41.650Z,28.80
2023-10-24T08:47:09.530Z,28.90
2023-10-24T08:49:40.326Z,28.20
2023-10-24T08:52:22.437Z,28.30
2023-10-24T08:54:52.750Z,27.60
2023-10-24T08:57:25.770Z,27.40
2023-10-24T08:59:53.845Z,26.80
2023-10-24T09:02:21.791Z,27.40
2023-10-24T09:04:51.180Z,27.70
2023-10-24T09:07:18.292Z,27.60
2023-10-24T09:09:45.175Z,27.40
2023-10-24T09:12:15.917Z,27.20
2023-10-24T09:14:53.485Z,28.00
2023-10-24T09:17:22.856Z,28.00
2023-10-24T09:19:50.146Z,27.90
2023-10-24T09:22:18.934Z,28.50
2023-10-24T09:24:47.342Z,28.60
2023-10-24T09:27:18.888Z,27.70
2023-10-24T09:29:50.312Z,27.10
2023-10-24T09:32:18.038Z,27.60
2023-10-24T09:34:46.909Z,26.90
2023-10-24T09:37:18.139Z,27.10
2023-10-24T09:39:56.804Z,27.10
2023-10-24T09:42:31.783Z,27.50
2023-10-24T09:45:09.000Z,28.30
2023-10-24T09:47:42.159Z,28.00
2023-10-24T09:50:13.108Z,27.80
2023-10-24T09:52:41.738Z,26.70
2023-10-24T09:55:09.577Z,27.10
2023-10-24T09:57:37.820Z,27.20
2023-10-24T10:00:05.976Z,27.40
2023-10-24T10:02:35.876Z,27.00
2023-10-24T10:05:03.353Z,27.10
2023-10-24T10:07:30.762Z,27.40
2023-10-24T10:09:59.256Z,27.70
2023-10-24T10:12:35.801Z,26.90
2023-10-24T10:15:37.835Z,28.00
2023-10-24T10:18:23.637Z,28.70
2023-10-24T10:21:23.457Z,28.10
2023-10-24T10:24:16.039Z,27.60
2023-10-24T10:27:19.907Z,27.50
2023-10-24T10:30:24.543Z,28.50
2023-10-24T10:33:15.633Z,28.20
2023-10-24T10:36:05.396Z,28.40
2023-10-24T10:38:50.747Z,28.50
2023-10-24T10:41:24.074Z,27.60
2023-10-24T10:44:01.341Z,27.70
2023-10-24T10:46:33.695Z,28.70
2023-10-24T10:49:07.928Z,28.70
2023-10-24T10:51:38.504Z,28.70
2023-10-24T10:54:41.376Z,28.40
2023-10-24T10:57:09.088Z,28.00
2023-10-24T10:59:54.975Z,27.60
2023-10-24T11:03:09.407Z,27.20
2023-10-24T11:05:48.241Z,27.20
2023-10-24T11:08:21.369Z,27.30
2023-10-24T11:11:00.869Z,27.30
2023-10-24T11:13:38.222Z,28.00
2023-10-24T11:16:21.206Z,28.40
2023-10-24T11:18:55.138Z,27.30
2023-10-24T11:21:22.318Z,26.90
2023-10-24T11:23:49.271Z,27.10
2023-10-24T11:26:16.837Z,26.70
2023-10-24T11:28:45.000Z,27.30
2023-10-24T11:31:22.085Z,27.30
2023-10-24T11:33:50.034Z,26.90
2023-10-24T11:36:17.361Z,26.90
2023-10-24T11:38:45.472Z,26.70
2023-10-24T11:41:12.794Z,26.10
2023-10-24T11:43:40.006Z,27.00
2023-10-24T11:46:07.182Z,26.80
2023-10-24T11:48:34.519Z,26.40
2023-10-24T11:51:05.138Z,27.00
2023-10-24T11:53:32.286Z,26.60
2023-10-24T11:55:59.869Z,27.70
2023-10-24T11:58:37.146Z,27.70
2023-10-24T12:01:04.510Z,28.50
2023-10-24T12:03:49.582Z,28.70
2023-10-24T12:06:19.036Z,28.90
2023-10-24T12:08:46.066Z,29.00
2023-10-24T12:11:14.927Z,28.90
2023-10-24T12:13:42.135Z,29.50
2023-10-24T12:16:09.924Z,29.30
2023-10-24T12:18:40.199Z,29.30
2023-10-24T12:21:09.349Z,30.00
2023-10-24T12:23:39.138Z,30.10
2023-10-24T12:26:06.944Z,30.40
2023-10-24T12:28:35.195Z,29.90
2023-10-24T12:31:02.214Z,29.90
2023-10-24T12:33:29.838Z,29.00
2023-10-24T12:35:59.260Z,28.40
2023-10-24T12:38:29.189Z,29.50
2023-10-24T12:40:56.350Z,30.10
2023-10-24T12:43:25.881Z,30.60
2023-10-24T12:45:53.024Z,30.00
2023-10-24T12:48:20.894Z,29.90
2023-10-24T12:50:48.617Z,30.00
2023-10-24T12:53:18.509Z,32.00
2023-10-24T12:55:46.029Z,32.40
2023-10-24T12:58:13.413Z,31.40
2023-10-24T13:00:40.533Z,31.80
2023-10-24T13:03:17.294Z,31.50
2023-10-24T13:05:48.716Z,31.70
2023-10-24T13:08:16.053Z,31.40
2023-10-24T13:10:45.550Z,32.00
2023-10-24T13:13:12.731Z,31.80
2023-10-24T13:15:39.762Z,31.40
2023-10-24T13:18:07.114Z,31.80
2023-10-24T13:20:34.246Z,30.40
2023-10-24T13:23:01.352Z,30.30
2023-10-24T13:25:30.338Z,31.10
2023-10-24T13:27:58.335Z,31.50
2023-10-24T13:30:37.813Z,30.80
2023-10-24T13:33:10.099Z,30.80
2023-10-24T13:38:07.955Z,29.50
2023-10-24T13:40:35.846Z,30.50
2023-10-24T13:43:04.881Z,30.20
2023-10-24T13:45:32.216Z,29.60
2023-10-24T13:47:59.361Z,30.10
2023-10-24T13:50:26.927Z,30.10
2023-10-24T13:52:53.900Z,30.20
2023-10-24T13:55:20.827Z,30.50
2023-10-24T13:57:50.884Z,30.60
2023-10-24T14:00:19.504Z,30.00
2023-10-24T14:02:46.700Z,29.90
2023-10-24T14:05:14.102Z,29.60
2023-10-24T14:07:41.145Z,29.80
2023-10-24T14:10:08.808Z,30.30
2023-10-24T14:12:35.810Z,29.40
2023-10-24T14:15:03.448Z,29.30
2023-10-24T14:17:30.710Z,29.80
2023-10-24T14:20:01.141Z,29.40
2023-10-24T14:22:28.232Z,31.00
2023-10-24T14:24:55.695Z,30.20
2023-10-24T14:27:22.764Z,31.30
2023-10-24T14:29:50.005Z,30.20
2023-10-24T14:32:17.384Z,29.80
2023-10-24T14:34:44.514Z,30.30
2023-10-24T14:37:12.242Z,29.40
2023-10-24T14:39:39.536Z,30.30
2023-10-24T14:42:07.337Z,30.40
2023-10-24T14:44:37.257Z,30.20
2023-10-24T14:47:04.791Z,29.70
2023-10-24T14:49:34.383Z,30.20
2023-10-24T14:52:03.789Z,30.00
2023-10-24T14:54:34.205Z,31.60
2023-10-24T14:57:01.548Z,32.00
2023-10-24T14:59:28.746Z,31.80
2023-10-24T15:01:57.419Z,32.20
2023-10-24T15:04:38.257Z,31.70
2023-10-24T15:07:05.578Z,32.20
2023-10-24T15:09:32.768Z,33.00
2023-10-24T15:11:59.800Z,32.50
2023-10-24T15:14:31.255Z,33.10
2023-10-24T15:17:02.666Z,34.20
2023-10-24T15:19:52.786Z,32.40
2023-10-24T15:22:21.149Z,32.30
2023-10-24T15:24:49.179Z,32.20
2023-10-24T15:27:19.668Z,32.10
2023-10-24T15:29:46.857Z,33.00
2023-10-24T15:32:16.529Z,33.60
2023-10-24T15:34:44.026Z,33.80
2023-10-24T15:37:11.368Z,34.00
2023-10-24T15:39:38.901Z,32.80
2023-10-24T15:42:06.389Z,32.30
2023-10-24T15:44:33.361Z,32.70
2023-10-24T15:47:00.526Z,32.30
2023-10-24T15:49:27.730Z,32.70
2023-10-24T15:51:55.094Z,32.50
2023-10-24T15:54:25.065Z,33.10
2023-10-24T15:56:54.298Z,33.10
2023-10-24T15:59:21.817Z,33.50
2023-10-24T16:01:51.088Z,33.60
2023-10-24T16:04:18.628Z,33.80
2023-10-24T16:06:45.733Z,34.10
2023-10-24T16:09:12.872Z,34.40
2023-10-24T16:11:40.180Z,34.30
2023-10-24T16:14:07.273Z,33.40
2023-10-24T16:16:34.606Z,33.20
2023-10-24T16:19:05.824Z,33.80
2023-10-24T16:21:33.559Z,34.50
2023-10-24T16:24:03.361Z,33.40
2023-10-24T16:26:31.755Z,33.80
2023-10-24T16:28:58.811Z,34.00
2023-10-24T16:31:25.834Z,34.50
2023-10-24T16:33:53.862Z,33.70
2023-10-24T16:36:20.882Z,33.50
2023-10-24T16:38:47.960Z,32.20
2023-10-24T16:41:15.634Z,34.00
2023-10-24T16:43:42.895Z,34.00
2023-10-24T16:46:11.185Z,34.00
2023-10-24T16:48:45.904Z,33.30
2023-10-24T16:51:16.572Z,32.90
2023-10-24T16:53:45.639Z,33.20
2023-10-24T16:56:12.797Z,32.60
2023-10-24T16:58:40.817Z,33.00
2023-10-24T17:01:08.080Z,32.70
2023-10-24T17:03:37.392Z,33.00
2023-10-24T17:06:05.454Z,32.70
2023-10-24T17:08:33.148Z,32.20
2023-10-24T17:11:03.286Z,31.70
2023-10-24T17:13:31.104Z,32.40
2023-10-24T17:15:58.298Z,32.00
2023-10-24T17:18:26.769Z,32.00
2023-10-24T17:20:54.253Z,31.90
2023-10-24T17:23:36.148Z,31.80
2023-10-24T17:26:06.098Z,31.30
2023-10-24T17:28:33.760Z,32.70
2023-10-24T17:31:02.247Z,32.30
2023-10-24T17:33:30.766Z,32.40
2023-10-24T17:35:58.475Z,32.20
2023-10-24T17:38:28.737Z,33.10
2023-10-24T17:40:57.744Z,32.00
2023-10-24T17:43:28.135Z,31.30
2023-10-24T17:45:55.240Z,31.70
2023-10-24T17:48:22.399Z,31.60
2023-10-24T17:50:49.558Z,30.30
2023-10-24T17:53:16.645Z,30.50
2023-10-24T17:55:43.845Z,30.40
2023-10-24T17:58:11.029Z,30.80
2023-10-24T18:00:38.148Z,30.40
2023-10-24T18:03:05.583Z,30.00
2023-10-24T18:05:32.911Z,31.10
2023-10-24T18:08:02.173Z,31.30
2023-10-24T18:10:29.715Z,30.00
2023-10-24T18:12:57.725Z,30.00
2023-10-24T18:15:24.766Z,30.90
2023-10-24T18:17:51.775Z,30.30
2023-10-24T18:20:19.037Z,31.10
2023-10-24T18:22:46.435Z,31.40
2023-10-24T18:25:13.739Z,31.40
2023-10-24T18:27:40.799Z,32.50
2023-10-24T18:30:08.682Z,33.20
2023-10-24T18:32:36.540Z,32.20
2023-10-24T18:35:04.448Z,32.50
2023-10-24T18:37:32.831Z,33.20
2023-10-24T18:39:59.870Z,32.30
2023-10-24T18:42:30.649Z,32.90
2023-10-24T18:44:59.400Z,33.00
2023-10-24T18:47:27.115Z,32.60
2023-10-24T18:49:54.659Z,32.50
2023-10-24T18:52:21.961Z,32.10
2023-10-24T18:54:49.032Z,32.40
2023-10-24T18:57:16.322Z,33.10
2023-10-24T18:59:43.686Z,32.00
2023-10-24T19:02:21.267Z,32.30
2023-10-24T19:04:50.339Z,33.10
2023-10-24T19:07:17.472Z,33.10
2023-10-24T19:09:45.053Z,31.90
2023-10-24T19:12:16.609Z,32.90
2023-10-24T19:14:44.765Z,31.30
2023-10-24T19:17:12.521Z,31.70
2023-10-24T19:19:43.232Z,31.30
2023-10-24T19:22:10.763Z,31.30
2023-10-24T19:24:38.041Z,32.20
2023-10-24T19:27:05.606Z,30.90
2023-10-24T19:29:33.350Z,30.40
2023-10-24T19:32:00.604Z,30.30
2023-10-24T19:34:27.988Z,31.70
2023-10-24T19:36:55.713Z,31.30
2023-10-24T19:39:23.031Z,31.00
2023-10-24T19:41:51.255Z,30.90
2023-10-24T19:44:21.608Z,30.70
2023-10-24T19:46:51.830Z,31.10
2023-10-24T19:49:19.498Z,31.40
2023-10-24T19:51:46.964Z,31.50
2023-10-24T19:54:21.364Z,31.60
2023-10-24T19:56:53.040Z,31.40
2023-10-24T19:59:20.770Z,32.30
2023-10-24T20:01:48.491Z,32.00
2023-10-24T20:04:15.825Z,31.60
2023-10-24T20:06:45.394Z,31.00
2023-10-24T20:09:14.589Z,31.80
2023-10-24T20:12:38.719Z,32.00
2023-10-24T20:14:29.272Z,31.50
2023-10-24T20:16:58.431Z,31.50
2023-10-24T20:19:25.750Z,33.30
2023-10-24T20:21:53.126Z,33.70
2023-10-24T20:24:20.385Z,34.60
2023-10-24T20:26:49.633Z,33.40
2023-10-24T20:29:16.625Z,33.00
2023-10-24T20:31:44.545Z,32.70
2023-10-24T20:34:14.408Z,31.90
2023-10-24T20:36:41.505Z,33.20
2023-10-24T20:39:08.593Z,32.70
2023-10-24T20:41:35.599Z,33.00
2023-10-24T20:44:02.528Z,32.30
2023-10-24T20:46:29.719Z,32.10
2023-10-24T20:48:58.380Z,32.40
2023-10-24T20:51:25.728Z,33.30
2023-10-24T20:53:52.859Z,32.10
2023-10-24T20:56:20.086Z,31.40
2023-10-24T20:58:47.187Z,30.90
2023-10-24T21:01:15.209Z,31.80
2023-10-24T21:03:51.732Z,31.00
2023-10-24T21:06:18.726Z,30.60
2023-10-24T21:08:45.691Z,31.80
2023-10-24T21:11:13.083Z,32.30
2023-10-24T21:13:39.990Z,31.30
2023-10-24T21:16:07.713Z,31.20
2023-10-24T21:18:36.145Z,31.80
2023-10-24T21:21:03.425Z,32.00
2023-10-24T21:23:30.376Z,31.40
2023-10-24T21:26:02.785Z,31.60
2023-10-24T21:28:30.095Z,31.30
2023-10-24T21:30:57.083Z,32.00
2023-10-24T21:33:24.146Z,31.50
2023-10-24T21:35:51.082Z,31.80
2023-10-24T21:38:18.089Z,32.70
2023-10-24T21:40:54.167Z,32.00
2023-10-24T21:43:22.663Z,31.10
2023-10-24T21:45:51.428Z,31.30
2023-10-24T21:48:18.529Z,31.60
2023-10-24T21:50:45.702Z,31.40
2023-10-24T21:53:12.594Z,31.90
2023-10-24T21:55:39.579Z,31.50
2023-10-24T21:58:06.540Z,31.30
2023-10-24T22:00:33.642Z,31.70
2023-10-24T22:03:00.684Z,31.90
2023-10-24T22:05:28.146Z,32.10
2023-10-24T22:07:55.306Z,31.30
2023-10-24T22:10:22.674Z,30.90
2023-10-24T22:12:49.884Z,32.30
2023-10-24T22:15:16.902Z,32.10
2023-10-24T22:17:44.081Z,31.90
2023-10-24T22:20:11.667Z,30.50
2023-10-24T22:22:38.619Z,30.00
2023-10-24T22:25:06.166Z,30.60
2023-10-24T22:27:33.297Z,30.30
2023-10-24T22:30:00.271Z,31.20
2023-10-24T22:32:27.343Z,30.10
2023-10-24T22:34:54.381Z,30.10
2023-10-24T22:37:21.447Z,30.30
2023-10-24T22:39:48.502Z,30.80
2023-10-24T22:42:15.543Z,30.80
2023-10-24T22:44:42.440Z,31.50
2023-10-24T22:47:09.305Z,31.40
2023-10-24T22:49:36.421Z,31.80
2023-10-24T22:52:03.863Z,32.70
2023-10-24T22:54:30.802Z,32.50
2023-10-24T22:56:57.906Z,31.80
2023-10-24T22:59:24.827Z,31.20
2023-10-24T23:01:51.992Z,31.00
2023-10-24T23:04:19.241Z,31.70
2023-10-24T23:06:46.265Z,31.60
2023-10-24T23:09:13.478Z,30.80
2023-10-24T23:11:40.440Z,30.60
2023-10-24T23:14:07.410Z,30.20
2023-10-24T23:16:34.509Z,30.20
2023-10-24T23:19:01.760Z,29.80
2023-10-24T23:21:28.758Z,30.10
2023-10-24T23:23:55.658Z,29.60
2023-10-24T23:26:22.743Z,30.10
2023-10-24T23:28:49.650Z,29.30
2023-10-24T23:31:16.605Z,29.70
2023-10-24T23:33:47.145Z,31.10
2023-10-24T23:36:14.941Z,31.30
2023-10-24T23:38:41.952Z,31.70
2023-10-24T23:41:09.099Z,31.40
2023-10-24T23:43:36.099Z,31.70
2023-10-24T23:46:02.969Z,31.60
2023-10-24T23:48:30.176Z,30.80
2023-10-24T23:50:57.262Z,31.50
2023-10-24T23:53:24.314Z,30.50
2023-10-24T23:55:51.178Z,31.50
2023-10-24T23:58:18.173Z,30.50
